Time;durP1;ratioP1;P1;durP2;ratioP2;P2;SDS_P1;SDS_P2;PMS_P1;PMS_P2;Temp;Humidity;BMP_temperature;BMP_pressure;BME280_temperature;BME280_humidity;BME280_pressure;Samples;Min_cycle;Max_cycle;Signal;HPM_P1;HPM_P2
2022/08/17 00:01:56;;;;;;;9.48;6.78;;;;;;;21.55;83.31;99885.50;8324542;28;20030;-51
2022/08/17 00:06:19;;;;;;;13.80;8.00;;;;;;;21.93;80.59;99883.44;8325796;28;20072;-51
2022/08/17 00:10:20;;;;;;;14.52;6.78;;;;;;;21.97;80.08;99896.53;8325696;28;20268;-51
2022/08/17 00:14:21;;;;;;;13.73;6.30;;;;;;;22.01;79.64;99892.22;8322854;28;20387;-51
2022/08/17 00:18:22;;;;;;;13.65;7.57;;;;;;;21.72;81.12;99884.69;8322659;28;20029;-52
2022/08/17 00:22:22;;;;;;;14.32;6.68;;;;;;;21.24;83.31;99889.16;8324606;28;20034;-48
2022/08/17 00:26:27;;;;;;;13.50;7.13;;;;;;;21.44;82.95;99884.34;8324939;28;20056;-48
2022/08/17 00:30:28;;;;;;;10.77;7.68;;;;;;;21.26;84.79;99876.06;8324653;28;20387;-51
2022/08/17 00:34:29;;;;;;;8.52;6.78;;;;;;;21.26;83.88;99867.81;8324804;28;20117;-51
2022/08/17 00:38:29;;;;;;;9.85;6.93;;;;;;;21.33;84.03;99868.56;8324995;28;20033;-50
2022/08/17 00:42:29;;;;;;;10.90;7.03;;;;;;;21.37;84.06;99868.97;8324887;28;20032;-48
2022/08/17 00:46:34;;;;;;;13.00;6.95;;;;;;;21.46;82.68;99862.94;8324100;28;20025;-47
2022/08/17 00:50:36;;;;;;;13.55;6.80;;;;;;;21.42;83.62;99861.72;8324665;28;20381;-51
2022/08/17 00:54:39;;;;;;;9.57;6.90;;;;;;;21.36;84.29;99859.88;8324620;28;20037;-50
2022/08/17 00:58:40;;;;;;;13.77;7.63;;;;;;;21.41;83.29;99857.28;8324812;28;20128;-49
2022/08/17 01:02:44;;;;;;;12.98;7.75;;;;;;;21.46;83.38;99854.69;8319189;28;20042;-51
2022/08/17 01:06:48;;;;;;;13.10;8.50;;;;;;;21.33;84.75;99860.31;8329394;28;20450;-51
2022/08/17 01:10:54;;;;;;;15.25;8.75;;;;;;;21.21;85.39;99851.13;8321918;28;20124;-51
2022/08/17 01:14:55;;;;;;;14.35;8.68;;;;;;;21.04;85.29;99860.97;8323403;28;20037;-51
2022/08/17 01:18:58;;;;;;;12.75;9.05;;;;;;;21.04;85.00;99866.47;8323252;28;20117;-52
2022/08/17 01:23:00;;;;;;;10.88;8.50;;;;;;;20.88;86.09;99861.50;8323059;28;20049;-52
2022/08/17 01:27:01;;;;;;;15.95;10.07;;;;;;;20.69;86.61;99865.25;8315051;28;20033;-50
2022/08/17 01:31:05;;;;;;;14.05;8.98;;;;;;;20.61;86.57;99860.00;8322105;28;20033;-52
2022/08/17 01:35:07;;;;;;;20.70;10.73;;;;;;;20.54;86.34;99864.72;8321994;28;20037;-52
2022/08/17 01:39:15;;;;;;;21.42;12.00;;;;;;;20.60;85.51;99863.81;8323045;28;20049;-51
2022/08/17 01:43:25;;;;;;;18.75;12.02;;;;;;;20.61;85.54;99860.00;8322849;28;20048;-50
2022/08/17 01:47:26;;;;;;;17.60;11.50;;;;;;;20.54;86.02;99864.72;8304920;28;20040;-49
2022/08/17 01:51:31;;;;;;;15.77;11.70;;;;;;;20.56;86.11;99873.56;8322110;28;20038;-49
2022/08/17 01:55:38;;;;;;;20.83;11.38;;;;;;;20.45;86.66;99868.78;8307950;28;20041;-50
2022/08/17 01:59:39;;;;;;;15.23;10.57;;;;;;;20.36;87.17;99864.59;8322922;28;20042;-50
2022/08/17 02:03:40;;;;;;;23.08;10.65;;;;;;;20.37;87.61;99871.78;8322867;28;20045;-47
2022/08/17 02:07:41;;;;;;;25.60;10.57;;;;;;;20.34;87.92;99873.03;8322543;28;20033;-49
2022/08/17 02:11:41;;;;;;;21.38;10.77;;;;;;;20.27;88.31;99871.41;8322808;28;20382;-50
2022/08/17 02:15:41;;;;;;;14.52;9.38;;;;;;;20.28;88.72;99870.34;8320575;28;20373;-46
2022/08/17 02:19:42;;;;;;;13.80;9.18;;;;;;;20.34;88.41;99864.81;8314963;28;20064;-48
2022/08/17 02:23:46;;;;;;;17.60;8.48;;;;;;;20.33;88.27;99863.13;8322238;28;20054;-47
2022/08/17 02:27:46;;;;;;;12.60;9.68;;;;;;;20.24;88.89;99863.59;8321467;28;20091;-47
2022/08/17 02:31:47;;;;;;;11.98;9.15;;;;;;;20.27;88.55;99865.91;8322258;28;20038;-48
2022/08/17 02:35:47;;;;;;;18.50;10.13;;;;;;;20.20;88.67;99862.34;8321292;28;20045;-50
2022/08/17 02:39:47;;;;;;;12.77;9.52;;;;;;;20.22;88.79;99868.47;8322544;28;20038;-53
2022/08/17 02:43:48;;;;;;;10.57;8.95;;;;;;;20.23;88.49;99861.91;8323064;28;20587;-53
2022/08/17 02:47:49;;;;;;;14.60;9.10;;;;;;;20.19;88.47;99856.00;8324841;28;20049;-52
2022/08/17 02:51:50;;;;;;;14.02;9.60;;;;;;;20.10;89.06;99848.22;8321406;28;20290;-51
2022/08/17 02:55:50;;;;;;;11.73;9.32;;;;;;;20.02;89.26;99853.94;8323607;28;20519;-48
2022/08/17 02:59:50;;;;;;;13.52;9.15;;;;;;;19.93;89.60;99855.25;8324442;28;20034;-49
2022/08/17 03:03:51;;;;;;;14.03;9.27;;;;;;;19.84;90.25;99854.66;8325861;28;20038;-51
2022/08/17 03:07:52;;;;;;;10.30;9.05;;;;;;;19.88;90.14;99860.56;8325871;28;20275;-49
2022/08/17 03:11:52;;;;;;;10.77;9.18;;;;;;;19.93;89.82;99850.63;8326583;28;20113;-47
2022/08/17 03:15:53;;;;;;;9.95;8.95;;;;;;;19.97;89.29;99845.56;8325654;28;20033;-50
2022/08/17 03:19:53;;;;;;;10.00;9.02;;;;;;;19.84;89.88;99851.06;8325631;28;20096;-48
2022/08/17 03:23:54;;;;;;;11.50;8.65;;;;;;;19.83;89.53;99843.91;8325456;28;20037;-49
2022/08/17 03:27:55;;;;;;;13.13;8.60;;;;;;;19.84;89.45;99845.56;8325471;28;20040;-51
2022/08/17 03:31:56;;;;;;;13.52;8.00;;;;;;;19.83;88.83;99849.38;8322240;28;20277;-49
2022/08/17 03:35:57;;;;;;;10.73;7.88;;;;;;;19.89;88.04;99854.00;8321671;28;20037;-49
2022/08/17 03:39:57;;;;;;;11.55;8.30;;;;;;;19.89;88.10;99848.53;8324569;28;20057;-48
2022/08/17 03:43:58;;;;;;;12.95;7.88;;;;;;;19.91;87.58;99839.00;8324546;28;20065;-50
2022/08/17 03:56:42;;;;;;;7.70;6.90;;;;;;;19.99;87.24;99857.13;8324528;28;20121;-47
2022/08/17 04:00:44;;;;;;;10.88;7.38;;;;;;;19.97;87.26;99860.09;8324587;28;20041;-48
2022/08/17 04:04:44;;;;;;;10.52;7.28;;;;;;;20.05;86.70;99864.50;8324265;28;20061;-48
2022/08/17 04:08:45;;;;;;;9.88;7.40;;;;;;;20.15;86.08;99863.00;8321662;28;20045;-50
2022/08/17 04:12:48;;;;;;;8.65;7.22;;;;;;;20.19;85.44;99877.16;8321638;28;20052;-50
2022/08/17 04:16:49;;;;;;;8.43;6.60;;;;;;;20.20;85.53;99873.34;8323563;28;20442;-50
2022/08/17 04:20:49;;;;;;;10.65;7.43;;;;;;;20.23;85.16;99867.41;8322213;28;20037;-47
2022/08/17 04:24:49;;;;;;;10.70;6.55;;;;;;;20.30;84.66;99865.47;8317508;28;20736;-48
2022/08/17 04:28:50;;;;;;;8.27;6.40;;;;;;;20.25;84.59;99862.56;8324183;28;20049;-48
2022/08/17 04:32:58;;;;;;;10.38;6.45;;;;;;;20.24;85.00;99866.34;8323919;28;20119;-51
2022/08/17 04:36:59;;;;;;;10.52;6.43;;;;;;;20.25;85.32;99868.03;8321987;28;20542;-48
2022/08/17 04:42:15;;;;;;;7.73;6.93;;;;;;;20.19;85.59;99872.47;8323057;28;20084;-50
2022/08/17 04:45:20;;;;;;;8.10;6.72;;;;;;;20.26;84.42;99861.47;8321941;28;20283;-47
2022/08/17 04:49:21;;;;;;;9.35;6.63;;;;;;;20.27;84.85;99868.66;8319926;28;20042;-49
2022/08/17 04:53:21;;;;;;;8.30;7.20;;;;;;;20.27;85.09;99885.97;8320065;28;20034;-48
2022/08/17 04:57:22;;;;;;;10.95;6.88;;;;;;;20.38;84.94;99888.03;8322334;28;20543;-47
2022/08/17 05:01:24;;;;;;;9.15;6.75;;;;;;;20.51;84.52;99878.88;8322831;28;20033;-48
2022/08/17 05:05:28;;;;;;;8.27;6.68;;;;;;;20.60;84.20;99875.66;8323301;28;20045;-48
2022/08/17 05:09:29;;;;;;;9.13;6.75;;;;;;;20.55;84.35;99869.13;8318983;28;20095;-51
2022/08/17 05:13:30;;;;;;;13.68;7.22;;;;;;;20.77;84.25;99878.72;8318828;28;20041;-49
2022/08/17 05:17:30;;;;;;;7.25;6.30;;;;;;;20.92;83.39;99884.75;8319666;28;20037;-47
2022/08/17 05:21:31;;;;;;;10.50;6.53;;;;;;;20.98;82.72;99927.88;8321292;28;20061;-48
2022/08/17 05:25:35;;;;;;;13.32;6.85;;;;;;;21.01;83.89;99916.41;8316198;28;20422;-48
2022/08/17 05:29:35;;;;;;;11.25;7.35;;;;;;;21.42;81.79;99913.97;8322111;28;20562;-50
2022/08/17 05:33:38;;;;;;;10.30;6.68;;;;;;;21.76;80.51;99916.22;8314331;28;20406;-49
2022/08/17 05:37:39;;;;;;;13.93;7.20;;;;;;;22.03;79.60;99908.50;8321259;28;20200;-48
2022/08/17 05:41:39;;;;;;;14.50;7.03;;;;;;;22.05;80.23;99911.91;8319474;28;20117;-47
2022/08/17 05:45:47;;;;;;;15.63;6.82;;;;;;;22.14;81.33;99933.38;8313816;28;20284;-49
2022/08/17 05:49:47;;;;;;;11.88;7.05;;;;;;;21.96;81.17;99936.09;8310495;28;20045;-50
2022/08/17 05:54:28;;;;;;;8.67;6.93;;;;;;;21.95;80.81;99944.59;8319607;28;20045;-51
2022/08/17 05:58:55;;;;;;;15.35;7.68;;;;;;;21.96;79.81;99944.38;8319427;28;20268;-52
2022/08/17 06:03:23;;;;;;;12.90;6.88;;;;;;;22.11;81.04;99942.09;8312072;28;20042;-51
2022/08/17 06:07:31;;;;;;;13.60;6.68;;;;;;;22.32;80.72;99952.66;8318234;28;20065;-51
2022/08/17 06:11:58;;;;;;;10.13;7.72;;;;;;;22.50;79.32;99952.66;8321374;28;20037;-50
2022/08/17 06:16:03;;;;;;;11.65;7.68;;;;;;;22.63;78.73;99944.22;8312114;28;20041;-51
2022/08/17 06:20:10;;;;;;;10.93;7.00;;;;;;;22.71;77.81;99932.91;8307951;28;20041;-51
2022/08/17 06:24:40;;;;;;;9.13;7.03;;;;;;;22.53;80.71;99921.06;8322008;28;20474;-50
2022/08/17 06:28:51;;;;;;;15.05;6.63;;;;;;;22.57;79.64;99912.09;8316760;28;20583;-48
2022/08/17 06:32:54;;;;;;;20.60;7.30;;;;;;;22.74;78.40;99907.63;8315917;28;20048;-47
2022/08/17 06:37:21;;;;;;;16.98;7.18;;;;;;;23.04;76.93;99908.44;8313623;28;20037;-51
2022/08/17 06:41:52;;;;;;;18.55;6.50;;;;;;;23.24;76.21;99910.91;8320671;28;20037;-48
2022/08/17 06:46:05;;;;;;;13.18;6.78;;;;;;;23.29;76.07;99897.25;8320214;28;20033;-51
2022/08/17 06:50:33;;;;;;;15.80;6.93;;;;;;;23.52;75.41;99921.25;8319760;28;20037;-48
2022/08/17 06:55:01;;;;;;;13.23;6.72;;;;;;;23.87;74.56;99935.91;8319588;28;20107;-49
2022/08/17 06:59:06;;;;;;;10.02;6.32;;;;;;;24.18;72.42;99963.22;8320194;28;20037;-48
2022/08/17 07:08:21;;;;;;;14.68;6.50;;;;;;;24.36;73.10;99976.84;8386912;27;20409;-51
2022/08/17 07:11:52;;;;;;;23.35;6.90;;;;;;;24.37;72.96;99979.38;8382760;28;20037;-51
2022/08/17 07:16:03;;;;;;;13.50;5.85;;;;;;;24.35;71.83;99980.69;8382570;28;20465;-49
2022/08/17 07:20:08;;;;;;;12.57;6.38;;;;;;;24.26;72.22;99982.16;8378432;28;20063;-51
2022/08/17 07:24:40;;;;;;;11.23;7.07;;;;;;;24.17;72.11;99989.13;8388408;28;20108;-48
2022/08/17 07:28:42;;;;;;;12.57;7.25;;;;;;;24.22;72.15;99992.03;8381929;28;20143;-50
2022/08/17 07:37:04;;;;;;;16.30;6.85;;;;;;;24.39;71.56;99998.47;8351166;27;20577;-50
2022/08/17 07:41:08;;;;;;;12.48;6.82;;;;;;;24.51;71.41;100004.81;8321947;28;20041;-50
2022/08/17 07:48:17;;;;;;;18.10;7.75;;;;;;;24.66;71.89;100002.44;8349422;28;20041;-49
2022/08/17 07:53:43;;;;;;;20.65;7.38;;;;;;;24.29;74.06;99993.56;8386917;27;20119;-48
2022/08/17 07:57:55;;;;;;;14.32;6.95;;;;;;;24.15;74.08;99996.84;8384205;28;20037;-51
2022/08/17 08:06:19;;;;;;;13.95;8.02;;;;;;;23.90;75.02;100021.03;8389427;27;21016;-50
2022/08/17 08:10:42;;;;;;;19.15;7.97;;;;;;;23.82;74.27;100018.66;8382636;28;20074;-49
2022/08/17 08:14:54;;;;;;;12.32;8.38;;;;;;;23.78;74.68;100029.31;8380943;28;20041;-48
2022/08/17 08:18:58;;;;;;;10.05;7.13;;;;;;;23.76;74.67;100036.16;8381487;28;20029;-52
2022/08/17 08:23:10;;;;;;;14.02;7.85;;;;;;;23.81;75.48;100033.50;8381965;28;20135;-51
2022/08/17 08:27:29;;;;;;;13.63;8.07;;;;;;;23.80;74.56;100040.97;8380230;28;20064;-50
2022/08/17 08:31:57;;;;;;;17.83;7.53;;;;;;;23.80;73.77;100048.41;8379836;28;20044;-51
2022/08/17 08:36:36;;;;;;;9.98;7.88;;;;;;;23.78;73.69;100045.06;8373279;28;20060;-48
2022/08/17 08:41:04;;;;;;;13.23;8.65;;;;;;;23.94;74.51;100052.63;8381633;28;20103;-49
2022/08/17 08:45:19;;;;;;;12.82;8.25;;;;;;;24.05;73.55;100049.06;8381129;28;20543;-48
2022/08/17 08:49:55;;;;;;;14.27;9.13;;;;;;;24.06;73.91;100056.28;8376131;28;20552;-51
2022/08/17 08:54:18;;;;;;;12.88;8.68;;;;;;;24.14;73.48;100056.78;8378862;28;20060;-52
2022/08/17 09:08:02;;;;;;;21.13;8.77;;;;;;;24.37;73.14;100067.00;8389914;27;20037;-48
2022/08/17 09:12:15;;;;;;;15.02;9.23;;;;;;;24.28;72.34;100068.44;8349450;28;20045;-49
2022/08/17 09:16:28;;;;;;;14.93;9.27;;;;;;;24.27;72.64;100083.31;8342566;28;20029;-51
2022/08/17 09:20:34;;;;;;;12.70;9.15;;;;;;;24.20;73.35;100093.63;8370429;28;20080;-51
2022/08/17 09:24:42;;;;;;;12.13;9.93;;;;;;;24.18;73.60;100093.88;8381748;28;20120;-49
2022/08/17 09:28:50;;;;;;;16.85;9.75;;;;;;;24.09;74.64;100091.72;8376616;28;20053;-51
2022/08/17 09:32:58;;;;;;;11.98;10.35;;;;;;;23.62;80.14;100090.72;8382227;28;20039;-47
2022/08/17 09:41:21;;;;;;;15.52;12.07;;;;;;;22.65;86.37;100088.16;8392063;27;20473;-47
2022/08/17 09:45:44;;;;;;;17.17;12.77;;;;;;;22.45;90.25;100081.97;8382374;28;20051;-51
2022/08/17 09:49:52;;;;;;;14.88;13.27;;;;;;;22.36;92.08;100077.00;8382612;28;20036;-51
2022/08/17 09:53:54;;;;;;;14.82;12.57;;;;;;;22.31;89.99;100069.41;8382358;28;20037;-51
2022/08/17 09:58:23;;;;;;;18.45;12.82;;;;;;;22.26;92.99;100044.47;8382186;28;20106;-51
2022/08/17 10:02:53;;;;;;;16.58;12.98;;;;;;;22.14;92.52;100045.44;8382459;28;20094;-48
2022/08/17 10:07:17;;;;;;;20.55;14.48;;;;;;;22.09;93.68;100048.88;8378781;28;20037;-49
2022/08/17 10:12:42;;;;;;;18.75;14.15;;;;;;;22.14;94.81;100051.78;8382027;28;20517;-48
2022/08/17 10:16:42;;;;;;;19.08;14.85;;;;;;;22.01;96.49;100029.88;8369965;28;20400;-50
2022/08/17 10:26:11;;;;;;;16.15;14.50;;;;;;;22.16;96.71;100035.03;8380022;28;20049;-51
2022/08/17 10:26:19;;;;;;;16.70;13.75;;;;;;;22.50;95.44;100040.84;8380880;28;20037;-50
2022/08/17 10:29:45;;;;;;;16.33;14.55;;;;;;;22.72;93.72;100050.34;8381067;28;20037;-49
2022/08/17 10:34:19;;;;;;;15.63;13.65;;;;;;;22.97;92.26;100053.00;8380950;28;20493;-48
2022/08/17 10:38:46;;;;;;;22.42;14.38;;;;;;;23.25;91.16;100060.72;8380653;28;20036;-49
2022/08/17 10:42:53;;;;;;;16.90;13.60;;;;;;;23.16;87.81;100074.81;8374322;28;20060;-48
2022/08/17 10:47:09;;;;;;;14.75;12.90;;;;;;;23.27;86.10;100069.59;8374480;28;20083;-51
2022/08/17 10:51:33;;;;;;;14.02;12.48;;;;;;;23.52;85.35;100075.81;8361916;28;20036;-49
2022/08/17 10:55:33;;;;;;;16.95;11.77;;;;;;;24.76;80.38;100077.28;8346674;28;20553;-49
2022/08/17 11:03:51;;;;;;;17.08;11.88;;;;;;;25.69;74.27;100073.16;8325670;27;20789;-49
2022/08/17 11:08:16;;;;;;;13.32;11.35;;;;;;;24.83;77.34;100083.56;8316609;28;20468;-51
2022/08/17 11:17:19;;;;;;;18.38;13.30;;;;;;;24.10;80.63;100093.41;8318559;27;20387;-49
2022/08/17 11:21:59;;;;;;;16.83;14.05;;;;;;;23.98;80.84;100095.28;8316534;28;20046;-51
2022/08/17 11:26:02;;;;;;;17.05;14.57;;;;;;;23.71;82.87;100102.28;8312603;28;20140;-52
2022/08/17 11:30:07;;;;;;;17.70;15.20;;;;;;;23.90;81.97;100090.91;8307974;28;20044;-49
2022/08/17 11:34:26;;;;;;;17.58;13.98;;;;;;;24.66;79.39;100089.00;8316362;28;20103;-52
2022/08/17 11:38:40;;;;;;;20.27;14.15;;;;;;;25.57;75.70;100091.75;8316540;28;20080;-53
2022/08/17 11:43:07;;;;;;;18.63;14.75;;;;;;;26.37;73.20;100097.88;8316790;28;20065;-50
2022/08/17 11:56:31;;;;;;;17.75;13.82;;;;;;;27.18;68.42;100099.91;8334272;27;20447;-51
2022/08/17 12:09:33;;;;;;;13.77;12.38;;;;;;;26.96;67.91;100107.41;8356109;27;20400;-49
2022/08/17 12:13:43;;;;;;;17.90;12.68;;;;;;;27.36;67.71;100105.16;8345554;28;20096;-52
2022/08/17 12:17:53;;;;;;;14.20;12.80;;;;;;;27.32;68.14;100106.81;8362611;28;20041;-53
2022/08/17 12:22:02;;;;;;;15.55;13.30;;;;;;;27.48;68.41;100089.22;8355871;28;20044;-52
2022/08/17 12:26:12;;;;;;;14.48;12.75;;;;;;;28.13;65.81;100092.66;8349739;28;20401;-48
2022/08/17 12:30:16;;;;;;;14.88;11.57;;;;;;;28.24;65.44;100094.44;8356198;28;20116;-48
2022/08/17 12:34:25;;;;;;;18.13;13.57;;;;;;;27.26;67.27;100113.38;8355891;28;20029;-48
2022/08/17 12:38:26;;;;;;;20.83;12.40;;;;;;;27.06;68.68;100107.53;8375579;28;20091;-48
2022/08/17 12:42:33;;;;;;;16.98;12.70;;;;;;;26.77;68.69;100113.25;8367957;28;20036;-48
2022/08/17 12:47:06;;;;;;;16.63;13.45;;;;;;;26.99;68.20;100116.06;8348353;28;20041;-49
2022/08/17 12:51:07;;;;;;;13.68;11.70;;;;;;;27.84;66.63;100103.19;8345992;28;20460;-48
2022/08/17 12:55:24;;;;;;;14.75;13.18;;;;;;;27.25;68.04;100100.59;8345185;28;20057;-49
2022/08/17 12:59:24;;;;;;;14.27;12.80;;;;;;;27.16;68.03;100102.09;8347463;28;20399;-51
2022/08/17 13:03:30;;;;;;;15.40;12.10;;;;;;;27.30;68.91;100093.19;8376627;28;20032;-48
2022/08/17 13:07:41;;;;;;;13.95;12.40;;;;;;;27.31;67.32;100082.88;8371615;28;20040;-47
2022/08/17 13:11:47;;;;;;;15.98;13.23;;;;;;;27.45;67.34;100076.69;8353513;28;20170;-48
2022/08/17 13:15:55;;;;;;;13.30;11.93;;;;;;;27.64;67.54;100082.72;8349716;28;20072;-47
2022/08/17 13:19:56;;;;;;;17.45;13.35;;;;;;;27.43;66.79;100076.09;8354607;28;20112;-47
2022/08/17 13:28:21;;;;;;;17.70;12.75;;;;;;;27.03;67.85;100091.38;8391023;27;20432;-49
2022/08/17 13:32:34;;;;;;;19.00;13.88;;;;;;;26.97;68.22;100086.88;8380200;28;20323;-48
2022/08/17 13:36:35;;;;;;;13.60;11.63;;;;;;;26.97;67.72;100086.88;8374392;28;20037;-50
2022/08/17 13:40:40;;;;;;;15.98;12.20;;;;;;;27.80;67.43;100096.50;8380080;28;20036;-50
2022/08/17 13:44:41;;;;;;;16.60;13.25;;;;;;;27.40;66.89;100092.44;8379739;28;20115;-50
2022/08/17 13:48:42;;;;;;;13.02;11.68;;;;;;;27.17;66.82;100087.13;8379980;28;20041;-47
2022/08/17 13:52:43;;;;;;;14.25;12.10;;;;;;;26.92;68.16;100089.59;8379404;28;20509;-49
2022/08/17 13:56:53;;;;;;;12.95;11.68;;;;;;;27.29;67.26;100085.09;8379527;28;20037;-51
2022/08/17 14:00:55;;;;;;;14.73;11.57;;;;;;;27.03;67.85;100096.94;8377934;28;20129;-48
2022/08/17 14:04:56;;;;;;;14.70;13.15;;;;;;;26.57;68.88;100082.44;8378594;28;20386;-49
2022/08/17 14:08:57;;;;;;;15.88;12.63;;;;;;;26.17;69.68;100079.00;8374837;28;20043;-50
2022/08/17 14:12:58;;;;;;;14.40;12.23;;;;;;;26.05;70.68;100083.81;8376546;28;20036;-48
2022/08/17 14:16:58;;;;;;;16.52;12.75;;;;;;;26.01;70.79;100077.06;8378577;28;20401;-51
2022/08/17 14:20:59;;;;;;;17.73;15.00;;;;;;;25.86;71.36;100059.31;8378770;28;20060;-49
2022/08/17 14:25:01;;;;;;;15.60;13.95;;;;;;;25.97;71.29;100073.09;8377136;28;20036;-48
2022/08/17 14:29:01;;;;;;;15.13;12.18;;;;;;;26.69;69.96;100062.91;8377888;28;20040;-48
2022/08/17 14:33:02;;;;;;;18.30;13.70;;;;;;;26.62;68.80;100065.88;8376848;28;20049;-51
2022/08/17 14:37:02;;;;;;;20.00;13.45;;;;;;;26.93;68.88;100071.84;8369603;28;20596;-51
2022/08/17 14:41:03;;;;;;;17.50;14.00;;;;;;;26.97;68.88;100059.13;8353525;28;20177;-50
2022/08/17 14:45:06;;;;;;;16.05;14.20;;;;;;;26.83;68.08;100065.06;8353937;28;20376;-51
2022/08/17 14:49:10;;;;;;;15.18;12.88;;;;;;;26.36;70.03;100052.72;8355262;28;20048;-53
2022/08/17 14:53:13;;;;;;;17.35;14.70;;;;;;;26.08;70.54;100055.59;8354755;28;20071;-51
2022/08/17 14:57:16;;;;;;;18.83;14.82;;;;;;;25.90;71.32;100053.03;8355404;28;20502;-53
2022/08/17 15:01:18;;;;;;;16.05;13.77;;;;;;;25.87;71.38;100042.47;8355734;28;20446;-53
2022/08/17 15:05:21;;;;;;;15.20;13.00;;;;;;;26.06;70.72;100030.06;8355654;28;20414;-53
2022/08/17 15:09:22;;;;;;;15.18;13.13;;;;;;;25.94;70.91;100039.50;8355279;28;20115;-54
2022/08/17 15:13:24;;;;;;;13.45;12.15;;;;;;;26.36;71.17;100043.53;8352990;28;20036;-53
2022/08/17 15:17:25;;;;;;;16.25;13.13;;;;;;;26.35;70.37;100045.47;8355526;28;20049;-54
2022/08/17 15:21:25;;;;;;;16.17;14.45;;;;;;;26.14;70.40;100051.78;8354551;28;20044;-54
2022/08/17 15:25:30;;;;;;;16.73;11.48;;;;;;;26.34;69.99;100045.72;8350240;28;20041;-52
2022/08/17 15:29:31;;;;;;;14.00;11.43;;;;;;;26.44;70.59;100030.06;8346427;28;20493;-51
2022/08/17 15:33:31;;;;;;;18.17;11.18;;;;;;;26.57;69.44;100032.50;8351428;28;20053;-53
2022/08/17 15:37:32;;;;;;;15.00;11.98;;;;;;;26.40;69.13;100026.13;8349244;28;20049;-50
2022/08/17 15:41:33;;;;;;;12.80;10.57;;;;;;;26.50;68.64;100026.28;8352811;28;20047;-51
2022/08/17 15:45:34;;;;;;;15.57;9.23;;;;;;;26.40;67.94;100025.28;8352520;28;20040;-53
2022/08/17 15:49:38;;;;;;;13.80;10.82;;;;;;;26.44;68.86;100035.63;8353904;28;20120;-54
2022/08/17 15:53:40;;;;;;;15.05;10.80;;;;;;;26.50;68.41;100037.38;8375753;28;20449;-51
2022/08/17 15:57:40;;;;;;;13.73;10.73;;;;;;;26.36;69.01;100051.84;8353982;28;20041;-52
2022/08/17 16:01:41;;;;;;;17.05;11.27;;;;;;;26.31;68.74;100038.75;8353510;28;20159;-52
2022/08/17 16:05:41;;;;;;;14.57;10.97;;;;;;;26.17;68.91;100042.97;8353829;28;20501;-53
2022/08/17 16:09:43;;;;;;;12.60;10.18;;;;;;;26.22;69.70;100040.28;8353485;28;20283;-53
2022/08/17 16:13:44;;;;;;;12.30;9.70;;;;;;;26.32;68.77;100034.88;8353360;28;20410;-51
2022/08/17 16:17:45;;;;;;;10.50;9.50;;;;;;;26.32;68.33;100034.06;8342313;28;20049;-52
2022/08/17 16:21:45;;;;;;;12.18;9.85;;;;;;;26.14;67.88;100029.59;8345773;28;20064;-50
2022/08/17 16:25:46;;;;;;;16.48;10.43;;;;;;;26.13;68.69;100035.44;8349931;28;20490;-52
2022/08/17 16:29:47;;;;;;;10.95;9.82;;;;;;;26.02;68.51;100033.56;8352615;28;20048;-52
2022/08/17 16:33:50;;;;;;;11.38;9.98;;;;;;;26.05;68.59;100033.06;8350942;28;20520;-50
2022/08/17 16:37:54;;;;;;;11.50;9.38;;;;;;;26.07;69.30;100042.00;8346289;28;20151;-53
2022/08/17 16:41:56;;;;;;;11.88;8.90;;;;;;;26.11;67.82;100032.91;8349733;28;20071;-52
2022/08/17 16:45:59;;;;;;;14.05;9.70;;;;;;;26.10;67.33;100036.75;8348846;28;20056;-54
2022/08/17 16:50:02;;;;;;;10.30;9.32;;;;;;;26.20;67.46;100034.13;8349535;28;20037;-53
2022/08/17 16:54:04;;;;;;;9.88;8.32;;;;;;;26.32;67.67;100029.34;8349049;28;20033;-52
2022/08/17 16:58:07;;;;;;;10.65;9.20;;;;;;;26.25;68.59;100028.69;8351091;28;20033;-52
2022/08/17 17:02:09;;;;;;;12.07;9.65;;;;;;;26.14;69.22;100026.00;8334811;28;20044;-50
2022/08/17 17:06:20;;;;;;;15.70;9.65;;;;;;;26.20;68.57;100028.59;8344287;28;20128;-52
2022/08/17 17:10:27;;;;;;;13.95;9.60;;;;;;;26.03;68.51;100033.31;8333171;28;20041;-53
2022/08/17 17:14:34;;;;;;;11.70;9.48;;;;;;;25.92;68.99;100038.94;8343271;28;20029;-53
2022/08/17 17:18:42;;;;;;;13.73;10.82;;;;;;;25.85;69.39;100038.22;8337306;28;20344;-51
2022/08/17 17:22:54;;;;;;;16.90;10.65;;;;;;;25.81;69.39;100042.59;8343746;28;20053;-51
2022/08/17 17:27:10;;;;;;;11.93;8.63;;;;;;;25.90;68.94;100036.41;8335288;28;20045;-50
2022/08/17 17:31:22;;;;;;;9.38;7.70;;;;;;;25.90;68.41;100041.94;8326390;28;20484;-50
2022/08/17 17:35:46;;;;;;;8.07;7.03;;;;;;;25.85;68.21;100041.84;8341934;28;20115;-49
2022/08/17 17:39:50;;;;;;;8.27;7.40;;;;;;;25.72;69.13;100055.19;8310174;28;20215;-51
2022/08/17 17:44:04;;;;;;;7.97;7.18;;;;;;;25.70;68.65;100055.44;8301666;28;20442;-52
2022/08/17 17:48:04;;;;;;;;;;;;;;;25.66;68.79;100068.13;8341610;28;20080;-50
2022/08/17 17:52:14;;;;;;;7.80;7.00;;;;;;;25.53;69.89;100065.66;8344356;28;19921;-54
2022/08/17 17:56:24;;;;;;;8.32;7.40;;;;;;;25.53;69.41;100062.88;8344961;28;20033;-51
2022/08/17 18:00:53;;;;;;;7.70;7.00;;;;;;;25.50;69.88;100074.47;8346278;28;20371;-51
2022/08/17 18:05:01;;;;;;;9.95;7.53;;;;;;;25.42;70.44;100072.09;8346676;28;20044;-51
2022/08/17 18:09:15;;;;;;;8.07;7.10;;;;;;;25.21;71.04;100069.97;8347753;28;20375;-50
2022/08/17 18:13:35;;;;;;;;;;;;;;;25.15;70.96;100065.41;8352646;28;20132;-51
2022/08/17 18:17:36;;;;;;;10.18;6.55;;;;;;;25.07;70.95;100063.06;8359045;28;19923;-54
2022/08/17 18:21:43;;;;;;;8.32;6.40;;;;;;;25.02;71.27;100069.31;8352684;28;20566;-53
2022/08/17 18:25:53;;;;;;;7.57;6.88;;;;;;;24.89;71.49;100079.81;8353795;28;20132;-53
2022/08/17 18:29:55;;;;;;;11.20;6.93;;;;;;;24.74;72.32;100074.78;8351718;28;20037;-53
2022/08/17 18:34:20;;;;;;;7.25;6.50;;;;;;;24.62;72.73;100084.16;8353210;28;20362;-53
2022/08/17 18:38:41;;;;;;;14.05;7.03;;;;;;;24.47;73.07;100083.81;8349574;28;20627;-51
2022/08/17 18:43:01;;;;;;;8.90;7.13;;;;;;;24.39;73.97;100097.97;8345364;28;20658;-53
2022/08/17 18:51:36;;;;;;;7.85;7.07;;;;;;;24.20;74.52;100104.69;8367656;27;20397;-53
2022/08/17 18:55:37;;;;;;;11.95;8.35;;;;;;;24.10;74.91;100119.09;8357991;28;20037;-52
2022/08/17 18:59:42;;;;;;;10.55;8.00;;;;;;;23.95;75.35;100123.38;8367176;28;20032;-52
2022/08/17 19:03:44;;;;;;;9.13;8.20;;;;;;;23.79;76.01;100129.56;8365358;28;20454;-51
2022/08/17 19:07:46;;;;;;;10.52;8.30;;;;;;;23.62;76.90;100129.38;8360581;28;20041;-52
2022/08/17 19:11:47;;;;;;;9.27;8.38;;;;;;;23.42;77.78;100127.97;8364601;28;20572;-49
2022/08/17 19:16:04;;;;;;;13.38;10.00;;;;;;;23.29;78.77;100133.69;8387997;28;20674;-52
2022/08/17 19:20:16;;;;;;;11.05;8.80;;;;;;;23.44;78.12;100137.69;8379352;28;20162;-49
2022/08/17 19:24:21;;;;;;;14.55;9.20;;;;;;;23.50;77.58;100142.28;8365789;28;20036;-51
2022/08/17 19:28:26;;;;;;;11.10;9.40;;;;;;;23.43;78.27;100140.69;8357273;28;20128;-52
2022/08/17 19:32:30;;;;;;;10.93;9.93;;;;;;;23.38;78.03;100143.28;8362286;28;20041;-51
2022/08/17 19:41:16;;;;;;;13.27;8.65;;;;;;;23.17;78.98;100142.69;8363563;27;20421;-51
2022/08/17 19:45:58;;;;;;;11.98;8.55;;;;;;;23.04;79.54;100159.41;8343486;28;20087;-51
2022/08/17 19:50:11;;;;;;;11.02;9.38;;;;;;;22.91;80.29;100165.03;8354803;28;20506;-51
2022/08/17 19:54:33;;;;;;;11.85;9.02;;;;;;;22.73;80.98;100166.97;8345716;28;20497;-49
2022/08/17 19:59:07;;;;;;;11.77;9.27;;;;;;;22.80;80.45;100160.31;8354240;28;20473;-50
2022/08/17 20:03:18;;;;;;;13.35;9.52;;;;;;;22.64;80.64;100174.69;8345519;28;20072;-51
2022/08/17 20:07:25;;;;;;;11.35;10.15;;;;;;;22.57;80.79;100171.13;8349131;28;20037;-52
2022/08/17 20:11:40;;;;;;;13.35;9.82;;;;;;;22.36;81.54;100160.50;8355468;28;20518;-51
2022/08/17 20:15:41;;;;;;;13.48;9.38;;;;;;;22.06;83.29;100175.16;8349753;28;20530;-50
2022/08/17 20:19:56;;;;;;;12.30;10.00;;;;;;;21.90;84.14;100171.03;8357208;28;20147;-50
2022/08/17 20:24:21;;;;;;;14.13;10.95;;;;;;;21.79;85.06;100174.47;8353732;28;20032;-51